sensor_id;sensor_type;location;lat;lon;timestamp;pressure;altitude;pressure_sealevel;temperature;humidity
26719;BME280;14326;50.794;6.060;2024-03-02T00:01:36;98009.53;;;9.59;75.51
26719;BME280;14326;50.794;6.060;2024-03-02T00:04:03;97996.28;;;9.58;75.71
26719;BME280;14326;50.794;6.060;2024-03-02T00:06:32;97996.38;;;9.49;75.98
26719;BME280;14326;50.794;6.060;2024-03-02T00:08:58;97999.84;;;9.55;76.58
26719;BME280;14326;50.794;6.060;2024-03-02T00:11:25;97994.44;;;9.63;76.10
26719;BME280;14326;50.794;6.060;2024-03-02T00:13:54;97998.00;;;9.62;76.65
26719;BME280;14326;50.794;6.060;2024-03-02T00:16:21;97993.56;;;9.61;75.80
26719;BME280;14326;50.794;6.060;2024-03-02T00:18:48;98009.53;;;9.59;76.75
26719;BME280;14326;50.794;6.060;2024-03-02T00:21:15;97999.72;;;9.66;76.41
26719;BME280;14326;50.794;6.060;2024-03-02T00:23:45;98004.09;;;9.70;76.03
26719;BME280;14326;50.794;6.060;2024-03-02T00:26:12;98009.38;;;9.71;75.90
26719;BME280;14326;50.794;6.060;2024-03-02T00:28:39;98002.25;;;9.73;75.52
26719;BME280;14326;50.794;6.060;2024-03-02T00:31:11;98011.97;;;9.77;75.86
26719;BME280;14326;50.794;6.060;2024-03-02T00:33:40;98011.00;;;9.81;75.88
26719;BME280;14326;50.794;6.060;2024-03-02T00:36:07;98004.00;;;9.76;75.48
26719;BME280;14326;50.794;6.060;2024-03-02T00:38:34;98017.28;;;9.76;74.85
26719;BME280;14326;50.794;6.060;2024-03-02T00:41:07;98006.72;;;9.71;75.23
26719;BME280;14326;50.794;6.060;2024-03-02T00:43:42;98009.38;;;9.71;75.74
26719;BME280;14326;50.794;6.060;2024-03-02T00:46:11;98004.06;;;9.71;76.63
26719;BME280;14326;50.794;6.060;2024-03-02T00:48:38;98004.03;;;9.73;75.78
26719;BME280;14326;50.794;6.060;2024-03-02T00:51:05;97996.88;;;9.78;76.36
26719;BME280;14326;50.794;6.060;2024-03-02T00:53:32;98008.34;;;9.83;76.49
26719;BME280;14326;50.794;6.060;2024-03-02T00:55:59;98006.56;;;9.83;76.03
26719;BME280;14326;50.794;6.060;2024-03-02T00:58:26;98017.13;;;9.85;76.53
26719;BME280;14326;50.794;6.060;2024-03-02T01:00:52;98013.50;;;9.94;76.24
26719;BME280;14326;50.794;6.060;2024-03-02T01:03:21;98021.53;;;9.88;77.12
26719;BME280;14326;50.794;6.060;2024-03-02T01:05:48;98023.25;;;9.93;76.12
26719;BME280;14326;50.794;6.060;2024-03-02T01:08:15;98023.16;;;9.99;75.68
26719;BME280;14326;50.794;6.060;2024-03-02T01:10:42;98032.97;;;9.94;76.01
26719;BME280;14326;50.794;6.060;2024-03-02T01:13:09;98030.25;;;9.96;75.72
26719;BME280;14326;50.794;6.060;2024-03-02T01:15:35;98035.53;;;10.00;76.48
26719;BME280;14326;50.794;6.060;2024-03-02T01:18:02;98039.00;;;10.04;75.92
26719;BME280;14326;50.794;6.060;2024-03-02T01:41:37;98090.06;;;9.58;88.14
26719;BME280;14326;50.794;6.060;2024-03-02T01:44:04;98080.47;;;9.43;92.19
26719;BME280;14326;50.794;6.060;2024-03-02T01:46:31;98084.91;;;9.44;93.50
26719;BME280;14326;50.794;6.060;2024-03-02T01:48:57;98082.44;;;9.25;95.30
26719;BME280;14326;50.794;6.060;2024-03-02T01:51:24;98078.06;;;9.24;96.03
26719;BME280;14326;50.794;6.060;2024-03-02T01:53:50;98079.03;;;9.17;96.25
26719;BME280;14326;50.794;6.060;2024-03-02T01:56:17;98085.22;;;9.17;96.66
26719;BME280;14326;50.794;6.060;2024-03-02T01:58:45;98090.63;;;9.07;98.70
26719;BME280;14326;50.794;6.060;2024-03-02T02:01:12;98095.09;;;8.98;100.00
26719;BME280;14326;50.794;6.060;2024-03-02T02:03:38;98096.88;;;8.99;100.00
26719;BME280;14326;50.794;6.060;2024-03-02T02:06:06;98094.28;;;8.92;100.00
26719;BME280;14326;50.794;6.060;2024-03-02T02:08:34;98092.59;;;8.83;100.00
26719;BME280;14326;50.794;6.060;2024-03-02T02:11:00;98094.34;;;8.84;100.00
26719;BME280;14326;50.794;6.060;2024-03-02T02:13:27;98090.94;;;8.69;100.00
26719;BME280;14326;50.794;6.060;2024-03-02T02:15:55;98090.91;;;8.76;100.00
26719;BME280;14326;50.794;6.060;2024-03-02T02:18:22;98093.69;;;8.58;100.00
26719;BME280;14326;50.794;6.060;2024-03-02T02:20:48;98084.03;;;8.49;100.00
26719;BME280;14326;50.794;6.060;2024-03-02T02:23:16;98095.50;;;8.48;100.00
26719;BME280;14326;50.794;6.060;2024-03-02T02:25:43;98091.03;;;8.55;100.00
26719;BME280;14326;50.794;6.060;2024-03-02T02:28:10;98079.59;;;8.50;100.00
26719;BME280;14326;50.794;6.060;2024-03-02T02:30:36;98080.56;;;8.38;100.00
26719;BME280;14326;50.794;6.060;2024-03-02T02:33:03;98084.09;;;8.39;100.00
26719;BME280;14326;50.794;6.060;2024-03-02T02:35:30;98085.03;;;8.29;100.00
26719;BME280;14326;50.794;6.060;2024-03-02T02:37:57;98088.53;;;8.37;100.00
26719;BME280;14326;50.794;6.060;2024-03-02T02:40:26;98089.44;;;8.28;100.00
26719;BME280;14326;50.794;6.060;2024-03-02T02:42:55;98089.44;;;8.28;100.00
26719;BME280;14326;50.794;6.060;2024-03-02T02:45:21;98085.06;;;8.21;100.00
26719;BME280;14326;50.794;6.060;2024-03-02T02:47:49;57030.06;;;-142.25;100.00
26719;BME280;14326;50.794;6.060;2024-03-02T02:51:16;98084.34;;;7.99;100.00
26719;BME280;14326;50.794;6.060;2024-03-02T02:53:43;98086.13;;;7.94;100.00
26719;BME280;14326;50.794;6.060;2024-03-02T02:56:09;98086.94;;;8.02;100.00
26719;BME280;14326;50.794;6.060;2024-03-02T02:58:36;98091.34;;;8.05;100.00
26719;BME280;14326;50.794;6.060;2024-03-02T03:01:03;98079.88;;;8.04;100.00
26719;BME280;14326;50.794;6.060;2024-03-02T03:03:29;98074.59;;;8.01;100.00
26719;BME280;14326;50.794;6.060;2024-03-02T03:05:56;98070.19;;;8.02;100.00
26719;BME280;14326;50.794;6.060;2024-03-02T03:08:24;98076.44;;;7.84;100.00
26719;BME280;14326;50.794;6.060;2024-03-02T03:10:51;98075.66;;;7.68;100.00
26719;BME280;14326;50.794;6.060;2024-03-02T03:13:17;98064.25;;;7.53;100.00
26719;BME280;14326;50.794;6.060;2024-03-02T03:15:44;98051.09;;;7.42;100.00
26719;BME280;14326;50.794;6.060;2024-03-02T03:18:10;98048.44;;;7.39;100.00
26719;BME280;14326;50.794;6.060;2024-03-02T03:20:36;98060.75;;;7.45;100.00
26719;BME280;14326;50.794;6.060;2024-03-02T03:23:03;98051.03;;;7.50;100.00
26719;BME280;14326;50.794;6.060;2024-03-02T03:25:31;98047.53;;;7.48;100.00
26719;BME280;14326;50.794;6.060;2024-03-02T03:27:58;98051.09;;;7.40;100.00
26719;BME280;14326;50.794;6.060;2024-03-02T03:30:24;98044.03;;;7.41;100.00
26719;BME280;14326;50.794;6.060;2024-03-02T03:32:51;98043.16;;;7.37;100.00
26719;BME280;14326;50.794;6.060;2024-03-02T03:35:17;98040.50;;;7.37;100.00
26719;BME280;14326;50.794;6.060;2024-03-02T03:37:45;98053.72;;;7.37;100.00
26719;BME280;14326;50.794;6.060;2024-03-02T03:40:11;98041.38;;;7.46;100.00
26719;BME280;14326;50.794;6.060;2024-03-02T03:42:41;98051.88;;;7.64;100.00
26719;BME280;14326;50.794;6.060;2024-03-02T03:45:08;98049.22;;;7.65;100.00
26719;BME280;14326;50.794;6.060;2024-03-02T03:47:34;98048.38;;;7.54;100.00
26719;BME280;14326;50.794;6.060;2024-03-02T03:50:01;98036.91;;;7.55;100.00
26719;BME280;14326;50.794;6.060;2024-03-02T03:52:29;98059.78;;;7.67;100.00
26719;BME280;14326;50.794;6.060;2024-03-02T03:54:56;98061.47;;;7.83;100.00
26719;BME280;14326;50.794;6.060;2024-03-02T03:57:23;98039.34;;;7.90;100.00
26719;BME280;14326;50.794;6.060;2024-03-02T03:59:51;98043.00;;;7.77;88.73
26719;BME280;14326;50.794;6.060;2024-03-02T04:02:17;57030.06;;;-142.25;100.00
26719;BME280;14326;50.794;6.060;2024-03-02T04:05:17;98057.94;;;7.81;100.00
26719;BME280;14326;50.794;6.060;2024-03-02T04:07:44;98057.06;;;7.82;100.00
26719;BME280;14326;50.794;6.060;2024-03-02T04:10:10;98053.47;;;7.92;100.00
26719;BME280;14326;50.794;6.060;2024-03-02T04:12:38;98052.56;;;8.01;100.00
26719;BME280;14326;50.794;6.060;2024-03-02T04:15:05;98039.34;;;7.92;100.00
26719;BME280;14326;50.794;6.060;2024-03-02T04:17:32;98034.88;;;8.04;100.00
26719;BME280;14326;50.794;6.060;2024-03-02T04:20:01;98048.13;;;8.01;100.00
26719;BME280;14326;50.794;6.060;2024-03-02T04:22:32;98046.38;;;7.99;100.00
26719;BME280;14326;50.794;6.060;2024-03-02T04:24:59;98050.78;;;7.97;100.00
26719;BME280;14326;50.794;6.060;2024-03-02T04:27:25;98054.28;;;8.03;100.00
26719;BME280;14326;50.794;6.060;2024-03-02T04:29:52;98056.03;;;8.07;100.00
26719;BME280;14326;50.794;6.060;2024-03-02T04:32:19;98048.00;;;8.19;100.00
26719;BME280;14326;50.794;6.060;2024-03-02T04:34:45;98060.41;;;8.14;100.00
26719;BME280;14326;50.794;6.060;2024-03-02T04:37:12;98052.44;;;8.16;100.00
26719;BME280;14326;50.794;6.060;2024-03-02T04:39:41;98057.78;;;8.10;100.00
26719;BME280;14326;50.794;6.060;2024-03-02T04:42:07;98056.81;;;8.20;100.00
26719;BME280;14326;50.794;6.060;2024-03-02T04:44:34;98053.34;;;8.16;100.00
26719;BME280;14326;50.794;6.060;2024-03-02T04:47:01;98067.41;;;8.25;100.00
26719;BME280;14326;50.794;6.060;2024-03-02T04:49:27;98070.06;;;8.21;100.00
26719;BME280;14326;50.794;6.060;2024-03-02T04:51:54;98061.28;;;8.15;100.00
26719;BME280;14326;50.794;6.060;2024-03-02T04:54:20;98056.88;;;8.15;100.00
26719;BME280;14326;50.794;6.060;2024-03-02T04:56:48;98054.16;;;8.25;100.00
26719;BME280;14326;50.794;6.060;2024-03-02T04:59:16;98063.00;;;8.23;99.60
26719;BME280;14326;50.794;6.060;2024-03-02T05:01:43;98060.38;;;8.17;99.99
26719;BME280;14326;50.794;6.060;2024-03-02T05:04:10;98067.56;;;8.00;99.11
26719;BME280;14326;50.794;6.060;2024-03-02T05:06:37;98070.19;;;8.03;99.33
26719;BME280;14326;50.794;6.060;2024-03-02T05:09:05;98074.53;;;8.16;98.82
26719;BME280;14326;50.794;6.060;2024-03-02T05:11:32;98062.19;;;8.11;97.87
26719;BME280;14326;50.794;6.060;2024-03-02T05:14:17;98081.66;;;8.05;97.82
26719;BME280;14326;50.794;6.060;2024-03-02T05:16:44;98070.13;;;8.11;98.36
26719;BME280;14326;50.794;6.060;2024-03-02T05:19:11;98076.28;;;8.17;98.11
26719;BME280;14326;50.794;6.060;2024-03-02T05:21:37;98074.47;;;8.22;97.56
26719;BME280;14326;50.794;6.060;2024-03-02T05:24:04;98075.44;;;8.12;97.13
26719;BME280;14326;50.794;6.060;2024-03-02T05:26:31;98076.25;;;8.20;97.78
26719;BME280;14326;50.794;6.060;2024-03-02T05:28:57;98075.41;;;8.14;97.48
26719;BME280;14326;50.794;6.060;2024-03-02T05:31:25;98070.09;;;8.17;96.85
26719;BME280;14326;50.794;6.060;2024-03-02T05:33:52;98078.97;;;8.08;97.10
26719;BME280;14326;50.794;6.060;2024-03-02T05:36:19;98086.88;;;8.13;98.16
26719;BME280;14326;50.794;6.060;2024-03-02T05:38:46;98096.63;;;8.11;97.82
26719;BME280;14326;50.794;6.060;2024-03-02T05:41:12;98080.72;;;8.09;97.94
26719;BME280;14326;50.794;6.060;2024-03-02T05:43:39;98092.25;;;8.07;98.70
26719;BME280;14326;50.794;6.060;2024-03-02T05:46:05;98090.44;;;8.10;98.41
26719;BME280;14326;50.794;6.060;2024-03-02T05:48:33;98101.06;;;8.06;97.91
26719;BME280;14326;50.794;6.060;2024-03-02T05:51:01;98093.13;;;8.04;98.80
26719;BME280;14326;50.794;6.060;2024-03-02T05:53:27;98086.97;;;7.98;98.94
26719;BME280;14326;50.794;6.060;2024-03-02T05:55:54;98092.25;;;8.05;99.66
26719;BME280;14326;50.794;6.060;2024-03-02T05:58:21;98093.97;;;8.09;98.26
26719;BME280;14326;50.794;6.060;2024-03-02T06:00:58;98099.28;;;8.09;98.79
26719;BME280;14326;50.794;6.060;2024-03-02T06:03:24;98089.56;;;8.08;99.24
26719;BME280;14326;50.794;6.060;2024-03-02T06:05:52;98107.25;;;8.05;98.98
26719;BME280;14326;50.794;6.060;2024-03-02T06:08:19;98092.25;;;8.05;99.37
26719;BME280;14326;50.794;6.060;2024-03-02T06:10:45;98092.25;;;8.05;98.21
26719;BME280;14326;50.794;6.060;2024-03-02T06:13:12;98097.47;;;8.14;98.34
26719;BME280;14326;50.794;6.060;2024-03-02T06:15:39;98100.16;;;8.08;96.94
26719;BME280;14326;50.794;6.060;2024-03-02T06:18:05;98098.34;;;8.18;96.58
26719;BME280;14326;50.794;6.060;2024-03-02T06:20:33;98111.53;;;8.26;96.39
26719;BME280;14326;50.794;6.060;2024-03-02T06:23:01;98093.91;;;8.25;95.76
26719;BME280;14326;50.794;6.060;2024-03-02T06:25:28;98099.16;;;8.31;95.72
26719;BME280;14326;50.794;6.060;2024-03-02T06:27:54;98093.94;;;8.18;96.56
26719;BME280;14326;50.794;6.060;2024-03-02T06:30:21;98102.84;;;8.07;97.02
26719;BME280;14326;50.794;6.060;2024-03-02T06:32:47;98112.53;;;8.05;96.89
26719;BME280;14326;50.794;6.060;2024-03-02T06:35:14;98112.47;;;8.15;97.36
26719;BME280;14326;50.794;6.060;2024-03-02T06:37:41;98127.47;;;8.13;97.09
26719;BME280;14326;50.794;6.060;2024-03-02T06:40:09;98138.03;;;8.19;96.43
26719;BME280;14326;50.794;6.060;2024-03-02T06:42:36;98132.78;;;8.16;96.25
26719;BME280;14326;50.794;6.060;2024-03-02T06:45:03;98132.81;;;8.10;96.49
26719;BME280;14326;50.794;6.060;2024-03-02T06:47:30;98136.31;;;8.17;96.38
26719;BME280;14326;50.794;6.060;2024-03-02T06:49:56;98126.56;;;8.19;95.57
26719;BME280;14326;50.794;6.060;2024-03-02T06:52:23;98125.75;;;8.09;96.22
26719;BME280;14326;50.794;6.060;2024-03-02T06:54:50;98124.88;;;8.12;96.89
26719;BME280;14326;50.794;6.060;2024-03-02T06:57:18;98136.38;;;8.02;96.88
26719;BME280;14326;50.794;6.060;2024-03-02T06:59:46;98137.19;;;8.13;97.33
26719;BME280;14326;50.794;6.060;2024-03-02T07:02:12;98150.44;;;8.16;97.16
26719;BME280;14326;50.794;6.060;2024-03-02T07:04:39;98149.53;;;8.14;97.04
26719;BME280;14326;50.794;6.060;2024-03-02T07:07:05;98150.44;;;8.14;96.86
26719;BME280;14326;50.794;6.060;2024-03-02T07:09:32;98154.88;;;8.12;96.83
26719;BME280;14326;50.794;6.060;2024-03-02T07:11:59;98163.66;;;8.17;96.83
26719;BME280;14326;50.794;6.060;2024-03-02T07:14:29;98161.03;;;8.14;97.05
26719;BME280;14326;50.794;6.060;2024-03-02T07:17:09;98168.09;;;8.18;96.61
26719;BME280;14326;50.794;6.060;2024-03-02T07:19:37;98166.28;;;8.20;96.73
26719;BME280;14326;50.794;6.060;2024-03-02T07:22:06;98161.88;;;8.21;96.62
26719;BME280;14326;50.794;6.060;2024-03-02T07:24:32;98173.34;;;8.25;96.23
26719;BME280;14326;50.794;6.060;2024-03-02T07:26:59;98177.75;;;8.27;84.71
26719;BME280;14326;50.794;6.060;2024-03-02T07:29:26;98179.47;;;8.37;96.58
26719;BME280;14326;50.794;6.060;2024-03-02T07:31:54;98175.06;;;8.38;95.61
26719;BME280;14326;50.794;6.060;2024-03-02T07:34:21;98168.94;;;9.44;92.17
26719;BME280;14326;50.794;6.060;2024-03-02T07:36:47;98175.00;;;9.55;87.67
26719;BME280;14326;50.794;6.060;2024-03-02T07:39:14;98171.69;;;9.33;88.60
26719;BME280;14326;50.794;6.060;2024-03-02T07:41:40;98186.03;;;9.13;89.54
26719;BME280;14326;50.794;6.060;2024-03-02T07:44:06;98174.25;;;9.42;90.87
26719;BME280;14326;50.794;6.060;2024-03-02T07:46:33;57030.06;;;-142.25;100.00
26719;BME280;14326;50.794;6.060;2024-03-02T07:49:18;98156.47;;;13.80;61.51
26719;BME280;14326;50.794;6.060;2024-03-02T07:51:45;98155.00;;;15.71;52.80
26719;BME280;14326;50.794;6.060;2024-03-02T07:54:11;98152.41;;;16.66;50.26
26719;BME280;14326;50.794;6.060;2024-03-02T07:56:38;98148.81;;;17.10;48.67
26719;BME280;14326;50.794;6.060;2024-03-02T07:59:05;98162.16;;;17.97;46.29
26719;BME280;14326;50.794;6.060;2024-03-02T08:01:32;98162.88;;;18.41;44.50
26719;BME280;14326;50.794;6.060;2024-03-02T08:04:00;98173.81;;;17.78;44.89
26719;BME280;14326;50.794;6.060;2024-03-02T08:06:29;98189.19;;;16.14;47.91
26719;BME280;14326;50.794;6.060;2024-03-02T08:08:57;98185.94;;;16.31;48.22
26719;BME280;14326;50.794;6.060;2024-03-02T08:11:24;98185.16;;;16.27;48.21
26719;BME280;14326;50.794;6.060;2024-03-02T08:13:52;98193.78;;;15.33;49.53
26719;BME280;14326;50.794;6.060;2024-03-02T08:16:20;98193.91;;;15.56;49.69
26719;BME280;14326;50.794;6.060;2024-03-02T08:18:47;98196.75;;;14.96;50.54
26719;BME280;14326;50.794;6.060;2024-03-02T08:21:14;98194.88;;;14.09;52.46
26719;BME280;14326;50.794;6.060;2024-03-02T08:23:43;98203.81;;;12.64;56.17
26719;BME280;14326;50.794;6.060;2024-03-02T08:26:10;98191.72;;;12.05;60.35
26719;BME280;14326;50.794;6.060;2024-03-02T08:28:37;98193.44;;;12.08;62.42
26719;BME280;14326;50.794;6.060;2024-03-02T08:31:05;98195.38;;;12.01;62.56
26719;BME280;14326;50.794;6.060;2024-03-02T08:33:32;98191.19;;;11.86;62.65
26719;BME280;14326;50.794;6.060;2024-03-02T08:35:58;98184.84;;;11.94;62.64
26719;BME280;14326;50.794;6.060;2024-03-02T08:38:25;98181.22;;;11.96;63.33
26719;BME280;14326;50.794;6.060;2024-03-02T08:40:53;98183.41;;;11.76;63.29
26719;BME280;14326;50.794;6.060;2024-03-02T08:43:20;98183.06;;;11.43;64.21
26719;BME280;14326;50.794;6.060;2024-03-02T08:45:48;98181.81;;;11.66;63.66
26719;BME280;14326;50.794;6.060;2024-03-02T08:48:15;98176.06;;;11.38;65.48
26719;BME280;14326;50.794;6.060;2024-03-02T08:50:42;98180.38;;;10.93;66.77
26719;BME280;14326;50.794;6.060;2024-03-02T08:53:09;98193.25;;;10.60;68.63
26719;BME280;14326;50.794;6.060;2024-03-02T08:55:36;98181.38;;;10.21;70.55
26719;BME280;14326;50.794;6.060;2024-03-02T08:58:04;98179.38;;;10.39;72.69
26719;BME280;14326;50.794;6.060;2024-03-02T09:00:30;98192.41;;;10.58;71.61
26719;BME280;14326;50.794;6.060;2024-03-02T09:02:57;98192.88;;;10.23;70.98
26719;BME280;14326;50.794;6.060;2024-03-02T09:05:24;98193.97;;;10.03;73.52
26719;BME280;14326;50.794;6.060;2024-03-02T09:07:51;98198.53;;;9.92;72.40
26719;BME280;14326;50.794;6.060;2024-03-02T09:10:17;98206.16;;;10.23;74.26
26719;BME280;14326;50.794;6.060;2024-03-02T09:12:44;98184.75;;;10.36;70.49
26719;BME280;14326;50.794;6.060;2024-03-02T09:15:12;98188.31;;;10.35;72.24
26719;BME280;14326;50.794;6.060;2024-03-02T09:17:38;98191.59;;;10.53;71.23
26719;BME280;14326;50.794;6.060;2024-03-02T09:20:06;98182.47;;;10.71;68.95
26719;BME280;14326;50.794;6.060;2024-03-02T09:22:33;98190.72;;;10.51;67.90
26719;BME280;14326;50.794;6.060;2024-03-02T09:24:59;98195.06;;;10.58;68.60
26719;BME280;14326;50.794;6.060;2024-03-02T09:27:26;98190.28;;;10.83;68.73
26719;BME280;14326;50.794;6.060;2024-03-02T09:29:52;98193.56;;;10.99;69.15
26719;BME280;14326;50.794;6.060;2024-03-02T09:32:20;98185.38;;;11.13;67.58
26719;BME280;14326;50.794;6.060;2024-03-02T09:34:47;98181.69;;;11.20;65.78
26719;BME280;14326;50.794;6.060;2024-03-02T09:37:14;98177.84;;;11.37;67.02
26719;BME280;14326;50.794;6.060;2024-03-02T09:39:43;98194.25;;;11.12;64.75
26719;BME280;14326;50.794;6.060;2024-03-02T09:42:09;98186.59;;;10.90;64.80
26719;BME280;14326;50.794;6.060;2024-03-02T09:44:36;98187.28;;;11.04;65.72
26719;BME280;14326;50.794;6.060;2024-03-02T09:47:04;98186.28;;;11.13;64.78
26719;BME280;14326;50.794;6.060;2024-03-02T09:49:32;98194.19;;;11.16;64.39
26719;BME280;14326;50.794;6.060;2024-03-02T09:51:59;98178.22;;;11.16;65.26
26719;BME280;14326;50.794;6.060;2024-03-02T09:54:25;98178.94;;;11.26;64.40
26719;BME280;14326;50.794;6.060;2024-03-02T09:56:52;98178.22;;;11.15;63.90
26719;BME280;14326;50.794;6.060;2024-03-02T09:59:19;98184.25;;;11.26;63.66
26719;BME280;14326;50.794;6.060;2024-03-02T10:01:56;98180.50;;;11.37;64.07
26719;BME280;14326;50.794;6.060;2024-03-02T10:04:25;98195.50;;;11.43;62.43
26719;BME280;14326;50.794;6.060;2024-03-02T10:07:09;98189.56;;;11.27;64.11
26719;BME280;14326;50.794;6.060;2024-03-02T10:09:36;98180.47;;;11.40;62.50
26719;BME280;14326;50.794;6.060;2024-03-02T10:12:04;98172.53;;;11.37;62.55
26719;BME280;14326;50.794;6.060;2024-03-02T10:14:31;98169.59;;;11.53;65.14
26719;BME280;14326;50.794;6.060;2024-03-02T10:17:02;98167.63;;;11.64;63.49
26719;BME280;14326;50.794;6.060;2024-03-02T10:19:29;98157.69;;;11.73;62.08
26719;BME280;14326;50.794;6.060;2024-03-02T10:21:59;98151.09;;;11.94;62.23
26719;BME280;14326;50.794;6.060;2024-03-02T10:24:26;98143.88;;;11.99;60.89
26719;BME280;14326;50.794;6.060;2024-03-02T10:26:53;98143.78;;;12.02;60.63
26719;BME280;14326;50.794;6.060;2024-03-02T10:29:22;98143.97;;;11.95;59.69
26719;BME280;14326;50.794;6.060;2024-03-02T10:31:48;98145.91;;;11.86;59.85
26719;BME280;14326;50.794;6.060;2024-03-02T10:34:15;98143.25;;;11.86;60.37
26719;BME280;14326;50.794;6.060;2024-03-02T10:36:43;98139.44;;;11.98;59.71
26719;BME280;14326;50.794;6.060;2024-03-02T10:39:12;98146.44;;;12.04;58.80
26719;BME280;14326;50.794;6.060;2024-03-02T10:41:40;98146.28;;;12.11;57.92
26719;BME280;14326;50.794;6.060;2024-03-02T10:44:08;98143.72;;;12.07;57.72
26719;BME280;14326;50.794;6.060;2024-03-02T10:46:36;98134.91;;;12.03;58.53
26719;BME280;14326;50.794;6.060;2024-03-02T10:49:04;98152.31;;;12.19;58.62
26719;BME280;14326;50.794;6.060;2024-03-02T10:51:32;98136.53;;;12.10;56.08
26719;BME280;14326;50.794;6.060;2024-03-02T10:54:02;98139.22;;;12.09;57.11
26719;BME280;14326;50.794;6.060;2024-03-02T10:56:31;98144.50;;;12.12;56.58
26719;BME280;14326;50.794;6.060;2024-03-02T10:59:03;98134.72;;;12.12;57.37
26719;BME280;14326;50.794;6.060;2024-03-02T11:01:32;98142.00;;;12.04;57.04
26719;BME280;14326;50.794;6.060;2024-03-02T11:03:59;98139.59;;;11.90;57.35
26719;BME280;14326;50.794;6.060;2024-03-02T11:06:29;98126.44;;;11.83;57.69
26719;BME280;14326;50.794;6.060;2024-03-02T11:09:00;98125.50;;;11.84;58.63
26719;BME280;14326;50.794;6.060;2024-03-02T11:11:32;98128.94;;;11.90;58.98
26719;BME280;14326;50.794;6.060;2024-03-02T11:14:04;98123.34;;;12.04;59.20
26719;BME280;14326;50.794;6.060;2024-03-02T11:16:35;98111.44;;;12.20;57.62
26719;BME280;14326;50.794;6.060;2024-03-02T11:19:04;98115.69;;;12.30;57.57
26719;BME280;14326;50.794;6.060;2024-03-02T11:21:32;98112.28;;;12.61;57.60
26719;BME280;14326;50.794;6.060;2024-03-02T11:24:00;98097.94;;;12.66;56.02
26719;BME280;14326;50.794;6.060;2024-03-02T11:26:27;98090.38;;;12.85;56.18
26719;BME280;14326;50.794;6.060;2024-03-02T11:28:55;98100.56;;;13.05;55.51
26719;BME280;14326;50.794;6.060;2024-03-02T11:31:57;98096.38;;;12.95;55.42
26719;BME280;14326;50.794;6.060;2024-03-02T11:34:29;98093.91;;;13.23;54.96
26719;BME280;14326;50.794;6.060;2024-03-02T11:36:56;98096.31;;;13.32;54.97
26719;BME280;14326;50.794;6.060;2024-03-02T11:39:22;98083.16;;;13.58;53.94
26719;BME280;14326;50.794;6.060;2024-03-02T11:41:49;98084.88;;;13.27;53.98
26719;BME280;14326;50.794;6.060;2024-03-02T11:44:17;98091.78;;;13.35;53.57
26719;BME280;14326;50.794;6.060;2024-03-02T11:46:45;98074.41;;;13.53;54.22
26719;BME280;14326;50.794;6.060;2024-03-02T11:49:14;98070.97;;;13.79;52.37
26719;BME280;14326;50.794;6.060;2024-03-02T11:51:50;98057.72;;;14.34;52.05
26719;BME280;14326;50.794;6.060;2024-03-02T11:54:20;98054.59;;;14.78;50.87
26719;BME280;14326;50.794;6.060;2024-03-02T11:56:47;98058.03;;;14.81;51.11
26719;BME280;14326;50.794;6.060;2024-03-02T11:59:14;98044.63;;;14.83;50.60
26719;BME280;14326;50.794;6.060;2024-03-02T12:01:42;98041.78;;;14.87;50.73
26719;BME280;14326;50.794;6.060;2024-03-02T12:04:10;98037.03;;;15.22;51.09
26719;BME280;14326;50.794;6.060;2024-03-02T12:06:37;98036.13;;;15.21;50.02
26719;BME280;14326;50.794;6.060;2024-03-02T12:09:04;98029.03;;;15.20;49.18
26719;BME280;14326;50.794;6.060;2024-03-02T12:11:36;98036.22;;;15.20;50.52
26719;BME280;14326;50.794;6.060;2024-03-02T12:14:03;98033.59;;;15.43;49.79
26719;BME280;14326;50.794;6.060;2024-03-02T12:16:29;98030.41;;;15.07;49.17
26719;BME280;14326;50.794;6.060;2024-03-02T12:18:57;98031.91;;;15.40;49.59
26719;BME280;14326;50.794;6.060;2024-03-02T12:21:24;98030.53;;;15.55;49.63
26719;BME280;14326;50.794;6.060;2024-03-02T12:23:51;98040.63;;;15.21;49.19
26719;BME280;14326;50.794;6.060;2024-03-02T12:26:18;98020.38;;;14.87;50.33
26719;BME280;14326;50.794;6.060;2024-03-02T12:28:45;98030.84;;;14.67;50.82
26719;BME280;14326;50.794;6.060;2024-03-02T12:31:13;98019.91;;;15.01;51.79
26719;BME280;14326;50.794;6.060;2024-03-02T12:33:40;98026.72;;;15.09;51.76
26719;BME280;14326;50.794;6.060;2024-03-02T12:36:10;98025.56;;;15.18;51.21
26719;BME280;14326;50.794;6.060;2024-03-02T12:38:37;98021.53;;;15.31;49.77
26719;BME280;14326;50.794;6.060;2024-03-02T12:41:04;98024.84;;;15.13;49.23
26719;BME280;14326;50.794;6.060;2024-03-02T12:43:31;98026.53;;;15.40;49.98
26719;BME280;14326;50.794;6.060;2024-03-02T12:45:58;98032.56;;;14.12;51.73
26719;BME280;14326;50.794;6.060;2024-03-02T12:48:25;98042.28;;;13.85;53.29
26719;BME280;14326;50.794;6.060;2024-03-02T12:50:52;98029.34;;;14.01;53.49
26719;BME280;14326;50.794;6.060;2024-03-02T12:53:21;98021.97;;;14.09;54.35
26719;BME280;14326;50.794;6.060;2024-03-02T12:55:48;98025.44;;;13.83;53.42
26719;BME280;14326;50.794;6.060;2024-03-02T12:58:18;98027.66;;;13.68;54.12
26719;BME280;14326;50.794;6.060;2024-03-02T13:00:46;98025.28;;;13.57;54.38
26719;BME280;14326;50.794;6.060;2024-03-02T13:03:13;98015.13;;;13.39;54.31
26719;BME280;14326;50.794;6.060;2024-03-02T13:05:40;98028.63;;;13.34;55.22
26719;BME280;14326;50.794;6.060;2024-03-02T13:08:07;98028.59;;;13.36;56.05
26719;BME280;14326;50.794;6.060;2024-03-02T13:10:35;98032.16;;;13.35;56.38
26719;BME280;14326;50.794;6.060;2024-03-02T13:13:02;98027.03;;;13.60;56.34
26719;BME280;14326;50.794;6.060;2024-03-02T13:15:28;98023.78;;;13.48;55.50
26719;BME280;14326;50.794;6.060;2024-03-02T13:17:58;98031.47;;;13.59;56.86
26719;BME280;14326;50.794;6.060;2024-03-02T13:20:29;98026.53;;;13.76;55.73
26719;BME280;14326;50.794;6.060;2024-03-02T13:22:56;98023.47;;;13.59;55.76
26719;BME280;14326;50.794;6.060;2024-03-02T13:25:23;98016.75;;;13.75;56.63
26719;BME280;14326;50.794;6.060;2024-03-02T13:27:51;98004.41;;;14.01;55.96